sensor_id;sensor_type;location;lat;lon;timestamp;temperature;humidity
4757;DHT22;2392;52.578;13.426;2023-01-08T00:01:12;9.00;99.90
4757;DHT22;2392;52.578;13.426;2023-01-08T00:03:39;9.00;99.90
4757;DHT22;2392;52.578;13.426;2023-01-08T00:06:07;9.00;99.90
4757;DHT22;2392;52.578;13.426;2023-01-08T00:08:36;9.00;99.90
4757;DHT22;2392;52.578;13.426;2023-01-08T00:11:04;8.90;99.90
4757;DHT22;2392;52.578;13.426;2023-01-08T00:13:31;8.90;99.90
4757;DHT22;2392;52.578;13.426;2023-01-08T00:16:02;8.90;99.90
4757;DHT22;2392;52.578;13.426;2023-01-08T00:18:29;8.80;99.90
4757;DHT22;2392;52.578;13.426;2023-01-08T00:20:57;8.80;99.90
4757;DHT22;2392;52.578;13.426;2023-01-08T00:23:24;8.80;99.90
4757;DHT22;2392;52.578;13.426;2023-01-08T00:25:53;8.80;99.90
4757;DHT22;2392;52.578;13.426;2023-01-08T00:28:19;8.70;99.90
4757;DHT22;2392;52.578;13.426;2023-01-08T00:30:47;8.70;99.90
4757;DHT22;2392;52.578;13.426;2023-01-08T00:33:14;8.70;99.90
4757;DHT22;2392;52.578;13.426;2023-01-08T00:35:41;8.60;99.90
4757;DHT22;2392;52.578;13.426;2023-01-08T00:38:08;8.60;99.90
4757;DHT22;2392;52.578;13.426;2023-01-08T00:40:35;8.60;99.90
4757;DHT22;2392;52.578;13.426;2023-01-08T00:43:04;8.60;99.90
4757;DHT22;2392;52.578;13.426;2023-01-08T00:45:32;8.50;99.90
4757;DHT22;2392;52.578;13.426;2023-01-08T00:47:59;8.50;99.90
4757;DHT22;2392;52.578;13.426;2023-01-08T00:50:26;8.50;99.90
4757;DHT22;2392;52.578;13.426;2023-01-08T00:52:53;8.50;99.90
4757;DHT22;2392;52.578;13.426;2023-01-08T00:55:20;8.40;99.90
4757;DHT22;2392;52.578;13.426;2023-01-08T00:57:47;8.40;99.90
4757;DHT22;2392;52.578;13.426;2023-01-08T01:00:15;8.30;99.90
4757;DHT22;2392;52.578;13.426;2023-01-08T01:02:43;8.30;99.90
4757;DHT22;2392;52.578;13.426;2023-01-08T01:05:11;8.30;99.90
4757;DHT22;2392;52.578;13.426;2023-01-08T01:07:40;8.30;99.90
4757;DHT22;2392;52.578;13.426;2023-01-08T01:10:08;8.30;99.90
4757;DHT22;2392;52.578;13.426;2023-01-08T01:12:36;8.30;99.90
4757;DHT22;2392;52.578;13.426;2023-01-08T01:15:04;8.20;99.90
4757;DHT22;2392;52.578;13.426;2023-01-08T01:17:33;8.20;99.90
4757;DHT22;2392;52.578;13.426;2023-01-08T01:20:00;8.20;99.90
4757;DHT22;2392;52.578;13.426;2023-01-08T01:22:27;8.10;99.90
4757;DHT22;2392;52.578;13.426;2023-01-08T01:24:54;8.10;99.90
4757;DHT22;2392;52.578;13.426;2023-01-08T01:27:24;8.10;99.90
4757;DHT22;2392;52.578;13.426;2023-01-08T01:29:51;8.10;99.90
4757;DHT22;2392;52.578;13.426;2023-01-08T01:32:18;8.00;99.90
4757;DHT22;2392;52.578;13.426;2023-01-08T01:34:46;7.90;99.90
4757;DHT22;2392;52.578;13.426;2023-01-08T01:37:14;7.90;99.90
4757;DHT22;2392;52.578;13.426;2023-01-08T01:39:41;7.90;99.90
4757;DHT22;2392;52.578;13.426;2023-01-08T01:42:11;7.80;99.90
4757;DHT22;2392;52.578;13.426;2023-01-08T01:45:00;7.80;99.90
4757;DHT22;2392;52.578;13.426;2023-01-08T01:47:29;7.80;99.90
4757;DHT22;2392;52.578;13.426;2023-01-08T01:50:02;7.80;99.90
4757;DHT22;2392;52.578;13.426;2023-01-08T01:52:32;7.80;99.90
4757;DHT22;2392;52.578;13.426;2023-01-08T01:55:00;7.70;99.90
4757;DHT22;2392;52.578;13.426;2023-01-08T01:57:30;7.70;99.90
4757;DHT22;2392;52.578;13.426;2023-01-08T01:59:58;7.70;99.90
4757;DHT22;2392;52.578;13.426;2023-01-08T02:02:37;7.60;99.90
4757;DHT22;2392;52.578;13.426;2023-01-08T02:05:07;7.60;99.90
4757;DHT22;2392;52.578;13.426;2023-01-08T02:07:41;7.60;99.90
4757;DHT22;2392;52.578;13.426;2023-01-08T02:10:12;7.60;99.90
4757;DHT22;2392;52.578;13.426;2023-01-08T02:12:45;7.60;99.90
4757;DHT22;2392;52.578;13.426;2023-01-08T02:15:15;7.50;99.90
4757;DHT22;2392;52.578;13.426;2023-01-08T02:17:48;7.50;99.90
4757;DHT22;2392;52.578;13.426;2023-01-08T02:20:20;7.50;99.90
4757;DHT22;2392;52.578;13.426;2023-01-08T02:23:15;7.50;99.90
4757;DHT22;2392;52.578;13.426;2023-01-08T02:26:12;7.50;99.90
4757;DHT22;2392;52.578;13.426;2023-01-08T02:28:45;7.40;99.90
4757;DHT22;2392;52.578;13.426;2023-01-08T02:31:14;7.40;99.90
4757;DHT22;2392;52.578;13.426;2023-01-08T02:33:42;7.40;99.90
4757;DHT22;2392;52.578;13.426;2023-01-08T02:36:23;7.40;99.90
4757;DHT22;2392;52.578;13.426;2023-01-08T02:41:51;7.30;99.90
4757;DHT22;2392;52.578;13.426;2023-01-08T02:44:21;7.30;99.90
4757;DHT22;2392;52.578;13.426;2023-01-08T02:46:53;7.30;99.90
4757;DHT22;2392;52.578;13.426;2023-01-08T02:49:25;7.20;99.90
4757;DHT22;2392;52.578;13.426;2023-01-08T02:51:56;7.20;99.90
4757;DHT22;2392;52.578;13.426;2023-01-08T02:54:27;7.20;99.90
4757;DHT22;2392;52.578;13.426;2023-01-08T02:56:59;7.20;99.90
4757;DHT22;2392;52.578;13.426;2023-01-08T02:59:28;7.10;99.90
4757;DHT22;2392;52.578;13.426;2023-01-08T03:01:57;7.10;99.90
4757;DHT22;2392;52.578;13.426;2023-01-08T03:04:25;7.10;99.90
4757;DHT22;2392;52.578;13.426;2023-01-08T03:06:54;7.10;99.90
4757;DHT22;2392;52.578;13.426;2023-01-08T03:09:21;7.10;99.90
4757;DHT22;2392;52.578;13.426;2023-01-08T03:11:53;7.10;99.90
4757;DHT22;2392;52.578;13.426;2023-01-08T03:14:27;7.10;99.90
4757;DHT22;2392;52.578;13.426;2023-01-08T03:16:57;7.10;99.90
4757;DHT22;2392;52.578;13.426;2023-01-08T03:19:28;7.10;99.90
4757;DHT22;2392;52.578;13.426;2023-01-08T03:21:57;7.00;99.90
4757;DHT22;2392;52.578;13.426;2023-01-08T03:24:28;7.00;99.90
4757;DHT22;2392;52.578;13.426;2023-01-08T03:26:57;7.00;99.90
4757;DHT22;2392;52.578;13.426;2023-01-08T03:29:27;7.00;99.90
4757;DHT22;2392;52.578;13.426;2023-01-08T03:31:57;7.00;99.90
4757;DHT22;2392;52.578;13.426;2023-01-08T03:34:27;7.00;99.90
4757;DHT22;2392;52.578;13.426;2023-01-08T03:36:58;7.00;99.90
4757;DHT22;2392;52.578;13.426;2023-01-08T03:39:29;7.00;99.90
4757;DHT22;2392;52.578;13.426;2023-01-08T03:42:01;6.90;99.90
4757;DHT22;2392;52.578;13.426;2023-01-08T03:44:31;6.90;99.90
4757;DHT22;2392;52.578;13.426;2023-01-08T03:46:58;6.90;99.90
4757;DHT22;2392;52.578;13.426;2023-01-08T03:49:27;6.90;99.90
4757;DHT22;2392;52.578;13.426;2023-01-08T03:51:55;6.90;99.90
4757;DHT22;2392;52.578;13.426;2023-01-08T03:54:26;6.90;99.90
4757;DHT22;2392;52.578;13.426;2023-01-08T03:56:55;6.90;99.90
4757;DHT22;2392;52.578;13.426;2023-01-08T03:59:22;6.90;99.90
4757;DHT22;2392;52.578;13.426;2023-01-08T04:01:50;6.80;99.90
4757;DHT22;2392;52.578;13.426;2023-01-08T04:04:18;6.90;99.90
4757;DHT22;2392;52.578;13.426;2023-01-08T04:06:45;6.80;99.90
4757;DHT22;2392;52.578;13.426;2023-01-08T04:09:12;6.80;99.90
4757;DHT22;2392;52.578;13.426;2023-01-08T04:11:39;6.80;99.90
4757;DHT22;2392;52.578;13.426;2023-01-08T04:14:06;6.80;99.90
4757;DHT22;2392;52.578;13.426;2023-01-08T04:16:33;6.80;99.90
4757;DHT22;2392;52.578;13.426;2023-01-08T04:19:01;6.80;99.90
4757;DHT22;2392;52.578;13.426;2023-01-08T04:21:28;6.80;99.90
4757;DHT22;2392;52.578;13.426;2023-01-08T04:23:55;6.80;99.90
4757;DHT22;2392;52.578;13.426;2023-01-08T04:26:22;6.80;99.90
4757;DHT22;2392;52.578;13.426;2023-01-08T04:28:49;6.70;99.90
4757;DHT22;2392;52.578;13.426;2023-01-08T04:31:16;6.70;99.90
4757;DHT22;2392;52.578;13.426;2023-01-08T04:33:43;6.70;99.90
4757;DHT22;2392;52.578;13.426;2023-01-08T04:36:12;6.70;99.90
4757;DHT22;2392;52.578;13.426;2023-01-08T04:38:39;6.70;99.90
4757;DHT22;2392;52.578;13.426;2023-01-08T04:41:06;6.70;99.90
4757;DHT22;2392;52.578;13.426;2023-01-08T04:43:33;6.70;99.90
4757;DHT22;2392;52.578;13.426;2023-01-08T04:46:01;6.70;99.90
4757;DHT22;2392;52.578;13.426;2023-01-08T04:48:29;6.70;99.90
4757;DHT22;2392;52.578;13.426;2023-01-08T04:50:57;6.70;99.90
4757;DHT22;2392;52.578;13.426;2023-01-08T04:53:26;6.70;99.90
4757;DHT22;2392;52.578;13.426;2023-01-08T04:55:54;6.70;99.90
4757;DHT22;2392;52.578;13.426;2023-01-08T04:58:21;6.70;99.90
4757;DHT22;2392;52.578;13.426;2023-01-08T05:00:48;6.70;99.90
4757;DHT22;2392;52.578;13.426;2023-01-08T05:03:15;6.70;99.90
4757;DHT22;2392;52.578;13.426;2023-01-08T05:05:42;6.70;99.90
4757;DHT22;2392;52.578;13.426;2023-01-08T05:08:09;6.70;99.90
4757;DHT22;2392;52.578;13.426;2023-01-08T05:10:37;6.70;99.90
4757;DHT22;2392;52.578;13.426;2023-01-08T05:13:04;6.80;99.90
4757;DHT22;2392;52.578;13.426;2023-01-08T05:15:31;6.80;99.90
4757;DHT22;2392;52.578;13.426;2023-01-08T05:17:59;6.80;99.90
4757;DHT22;2392;52.578;13.426;2023-01-08T05:20:26;6.80;99.90
4757;DHT22;2392;52.578;13.426;2023-01-08T05:22:54;6.80;99.90
4757;DHT22;2392;52.578;13.426;2023-01-08T05:25:23;6.80;99.90
4757;DHT22;2392;52.578;13.426;2023-01-08T05:27:52;6.80;99.90
4757;DHT22;2392;52.578;13.426;2023-01-08T05:30:19;6.80;99.90
4757;DHT22;2392;52.578;13.426;2023-01-08T05:32:46;6.80;99.90
4757;DHT22;2392;52.578;13.426;2023-01-08T05:35:13;6.90;99.90
4757;DHT22;2392;52.578;13.426;2023-01-08T05:37:40;6.80;99.90
4757;DHT22;2392;52.578;13.426;2023-01-08T05:40:08;6.90;99.90
4757;DHT22;2392;52.578;13.426;2023-01-08T05:42:36;6.90;99.90
4757;DHT22;2392;52.578;13.426;2023-01-08T05:45:05;6.90;99.90
4757;DHT22;2392;52.578;13.426;2023-01-08T05:47:33;7.00;99.90
4757;DHT22;2392;52.578;13.426;2023-01-08T05:50:00;7.00;99.90
4757;DHT22;2392;52.578;13.426;2023-01-08T05:52:27;7.00;99.90
4757;DHT22;2392;52.578;13.426;2023-01-08T05:54:54;7.00;99.90
4757;DHT22;2392;52.578;13.426;2023-01-08T05:57:21;7.10;99.90
4757;DHT22;2392;52.578;13.426;2023-01-08T05:59:48;7.10;99.90
4757;DHT22;2392;52.578;13.426;2023-01-08T06:02:17;7.20;99.90
4757;DHT22;2392;52.578;13.426;2023-01-08T06:04:44;7.20;99.90
4757;DHT22;2392;52.578;13.426;2023-01-08T06:07:11;7.30;99.90
4757;DHT22;2392;52.578;13.426;2023-01-08T06:09:37;7.30;99.90
4757;DHT22;2392;52.578;13.426;2023-01-08T06:12:05;7.40;99.90
4757;DHT22;2392;52.578;13.426;2023-01-08T06:14:32;7.40;99.90
4757;DHT22;2392;52.578;13.426;2023-01-08T06:16:59;7.40;99.90
4757;DHT22;2392;52.578;13.426;2023-01-08T06:19:27;7.40;99.90
4757;DHT22;2392;52.578;13.426;2023-01-08T06:21:55;7.40;99.90
4757;DHT22;2392;52.578;13.426;2023-01-08T06:24:22;7.50;99.90
4757;DHT22;2392;52.578;13.426;2023-01-08T06:26:49;7.50;99.90
4757;DHT22;2392;52.578;13.426;2023-01-08T06:29:16;7.50;99.90
4757;DHT22;2392;52.578;13.426;2023-01-08T06:31:43;7.50;99.90
4757;DHT22;2392;52.578;13.426;2023-01-08T06:34:10;7.60;99.90
4757;DHT22;2392;52.578;13.426;2023-01-08T06:36:38;7.60;99.90
4757;DHT22;2392;52.578;13.426;2023-01-08T06:39:06;7.60;99.90
4757;DHT22;2392;52.578;13.426;2023-01-08T06:41:33;7.60;99.90
4757;DHT22;2392;52.578;13.426;2023-01-08T06:44:00;7.60;99.90
4757;DHT22;2392;52.578;13.426;2023-01-08T06:46:27;7.60;99.90
4757;DHT22;2392;52.578;13.426;2023-01-08T06:48:54;7.60;99.90
4757;DHT22;2392;52.578;13.426;2023-01-08T06:51:21;7.70;99.90
4757;DHT22;2392;52.578;13.426;2023-01-08T06:53:49;7.70;99.90
4757;DHT22;2392;52.578;13.426;2023-01-08T06:56:16;7.70;99.90
4757;DHT22;2392;52.578;13.426;2023-01-08T06:58:43;7.70;99.90
4757;DHT22;2392;52.578;13.426;2023-01-08T07:01:12;7.70;99.90
4757;DHT22;2392;52.578;13.426;2023-01-08T07:03:40;7.70;99.90
4757;DHT22;2392;52.578;13.426;2023-01-08T07:06:12;7.70;99.90
4757;DHT22;2392;52.578;13.426;2023-01-08T07:08:40;7.70;99.90
4757;DHT22;2392;52.578;13.426;2023-01-08T07:11:08;7.70;99.90
4757;DHT22;2392;52.578;13.426;2023-01-08T07:13:35;7.80;99.90
4757;DHT22;2392;52.578;13.426;2023-01-08T07:16:05;7.70;99.90
4757;DHT22;2392;52.578;13.426;2023-01-08T07:18:33;7.80;99.90
4757;DHT22;2392;52.578;13.426;2023-01-08T07:21:01;7.80;99.90
4757;DHT22;2392;52.578;13.426;2023-01-08T07:23:28;7.80;99.90
4757;DHT22;2392;52.578;13.426;2023-01-08T07:25:58;7.80;99.90
4757;DHT22;2392;52.578;13.426;2023-01-08T07:28:27;7.80;99.90
4757;DHT22;2392;52.578;13.426;2023-01-08T07:30:54;7.80;99.90
4757;DHT22;2392;52.578;13.426;2023-01-08T07:33:21;7.80;99.90
4757;DHT22;2392;52.578;13.426;2023-01-08T07:35:51;7.80;99.90
4757;DHT22;2392;52.578;13.426;2023-01-08T07:38:18;7.80;99.90
4757;DHT22;2392;52.578;13.426;2023-01-08T07:40:45;7.80;99.90
4757;DHT22;2392;52.578;13.426;2023-01-08T07:43:13;7.80;99.90
4757;DHT22;2392;52.578;13.426;2023-01-08T07:45:41;7.90;99.90
4757;DHT22;2392;52.578;13.426;2023-01-08T07:48:09;7.90;99.90
4757;DHT22;2392;52.578;13.426;2023-01-08T07:50:40;7.90;99.90
4757;DHT22;2392;52.578;13.426;2023-01-08T07:53:07;7.90;99.90
4757;DHT22;2392;52.578;13.426;2023-01-08T07:55:34;7.90;99.90
4757;DHT22;2392;52.578;13.426;2023-01-08T07:58:06;7.90;99.90
4757;DHT22;2392;52.578;13.426;2023-01-08T08:00:34;7.80;99.90
4757;DHT22;2392;52.578;13.426;2023-01-08T08:03:04;7.80;99.90
4757;DHT22;2392;52.578;13.426;2023-01-08T08:05:32;7.80;99.90
4757;DHT22;2392;52.578;13.426;2023-01-08T08:08:00;7.80;99.90
4757;DHT22;2392;52.578;13.426;2023-01-08T08:10:27;7.70;99.90
4757;DHT22;2392;52.578;13.426;2023-01-08T08:12:54;7.70;99.90
4757;DHT22;2392;52.578;13.426;2023-01-08T08:15:21;7.70;99.90
4757;DHT22;2392;52.578;13.426;2023-01-08T08:17:48;7.80;99.90
4757;DHT22;2392;52.578;13.426;2023-01-08T08:20:17;7.80;99.90
4757;DHT22;2392;52.578;13.426;2023-01-08T08:22:44;7.80;99.90
4757;DHT22;2392;52.578;13.426;2023-01-08T08:25:11;7.90;99.90
4757;DHT22;2392;52.578;13.426;2023-01-08T08:27:40;7.80;99.90
4757;DHT22;2392;52.578;13.426;2023-01-08T08:30:08;7.80;99.90
4757;DHT22;2392;52.578;13.426;2023-01-08T08:32:35;7.80;99.90
4757;DHT22;2392;52.578;13.426;2023-01-08T08:35:03;7.80;99.90
4757;DHT22;2392;52.578;13.426;2023-01-08T08:37:31;7.80;99.90
4757;DHT22;2392;52.578;13.426;2023-01-08T08:39:58;7.80;99.90
4757;DHT22;2392;52.578;13.426;2023-01-08T08:42:25;7.90;99.90
4757;DHT22;2392;52.578;13.426;2023-01-08T08:44:52;7.80;99.90
4757;DHT22;2392;52.578;13.426;2023-01-08T08:47:20;7.90;99.90
4757;DHT22;2392;52.578;13.426;2023-01-08T08:49:47;7.90;99.90
4757;DHT22;2392;52.578;13.426;2023-01-08T08:52:14;7.90;99.90
4757;DHT22;2392;52.578;13.426;2023-01-08T08:54:42;7.90;99.90
4757;DHT22;2392;52.578;13.426;2023-01-08T08:57:10;7.90;99.90
4757;DHT22;2392;52.578;13.426;2023-01-08T08:59:37;7.90;99.90
4757;DHT22;2392;52.578;13.426;2023-01-08T09:02:04;7.90;99.90
4757;DHT22;2392;52.578;13.426;2023-01-08T09:04:32;8.00;99.90
4757;DHT22;2392;52.578;13.426;2023-01-08T09:06:59;8.00;99.90
4757;DHT22;2392;52.578;13.426;2023-01-08T09:09:26;8.00;99.90
4757;DHT22;2392;52.578;13.426;2023-01-08T09:11:55;8.00;99.90
4757;DHT22;2392;52.578;13.426;2023-01-08T09:14:22;8.10;99.90
4757;DHT22;2392;52.578;13.426;2023-01-08T09:16:49;8.10;99.90
4757;DHT22;2392;52.578;13.426;2023-01-08T09:19:16;8.20;99.90
4757;DHT22;2392;52.578;13.426;2023-01-08T09:21:43;8.20;99.90
4757;DHT22;2392;52.578;13.426;2023-01-08T09:24:11;8.20;99.90
4757;DHT22;2392;52.578;13.426;2023-01-08T09:26:38;8.20;99.90
4757;DHT22;2392;52.578;13.426;2023-01-08T09:29:06;8.30;99.90
4757;DHT22;2392;52.578;13.426;2023-01-08T09:31:33;8.30;99.90
4757;DHT22;2392;52.578;13.426;2023-01-08T09:34:00;8.40;99.90
4757;DHT22;2392;52.578;13.426;2023-01-08T09:36:28;8.40;99.90
4757;DHT22;2392;52.578;13.426;2023-01-08T09:38:55;8.40;99.90
4757;DHT22;2392;52.578;13.426;2023-01-08T09:41:25;8.40;99.90
4757;DHT22;2392;52.578;13.426;2023-01-08T09:43:55;8.40;99.90
4757;DHT22;2392;52.578;13.426;2023-01-08T09:46:26;8.40;99.90
4757;DHT22;2392;52.578;13.426;2023-01-08T09:48:55;8.40;99.90
4757;DHT22;2392;52.578;13.426;2023-01-08T09:51:29;8.40;99.90
4757;DHT22;2392;52.578;13.426;2023-01-08T09:53:57;8.40;99.90
4757;DHT22;2392;52.578;13.426;2023-01-08T09:56:24;8.40;99.90
4757;DHT22;2392;52.578;13.426;2023-01-08T09:58:53;8.40;99.90
4757;DHT22;2392;52.578;13.426;2023-01-08T10:01:23;8.40;99.90
4757;DHT22;2392;52.578;13.426;2023-01-08T10:03:54;8.40;99.90
4757;DHT22;2392;52.578;13.426;2023-01-08T10:06:23;8.40;99.90
4757;DHT22;2392;52.578;13.426;2023-01-08T10:08:51;8.40;99.90
4757;DHT22;2392;52.578;13.426;2023-01-08T10:11:19;8.50;99.90
4757;DHT22;2392;52.578;13.426;2023-01-08T10:13:49;8.50;99.90
4757;DHT22;2392;52.578;13.426;2023-01-08T10:16:24;8.50;99.90
4757;DHT22;2392;52.578;13.426;2023-01-08T10:18:53;8.50;99.90
4757;DHT22;2392;52.578;13.426;2023-01-08T10:21:28;8.50;99.90
4757;DHT22;2392;52.578;13.426;2023-01-08T10:23:56;8.50;99.90
4757;DHT22;2392;52.578;13.426;2023-01-08T10:26:25;8.50;99.90
4757;DHT22;2392;52.578;13.426;2023-01-08T10:29:05;8.50;99.90
4757;DHT22;2392;52.578;13.426;2023-01-08T10:31:33;8.50;99.90
4757;DHT22;2392;52.578;13.426;2023-01-08T10:34:09;8.50;99.90
4757;DHT22;2392;52.578;13.426;2023-01-08T10:36:41;8.40;99.90
4757;DHT22;2392;52.578;13.426;2023-01-08T10:39:20;8.50;99.90
4757;DHT22;2392;52.578;13.426;2023-01-08T10:41:48;8.50;99.90
4757;DHT22;2392;52.578;13.426;2023-01-08T10:44:19;8.50;99.90
4757;DHT22;2392;52.578;13.426;2023-01-08T10:46:49;8.50;99.90
4757;DHT22;2392;52.578;13.426;2023-01-08T10:49:26;8.50;99.90
4757;DHT22;2392;52.578;13.426;2023-01-08T10:51:55;8.50;99.90
4757;DHT22;2392;52.578;13.426;2023-01-08T10:54:33;8.50;99.90
4757;DHT22;2392;52.578;13.426;2023-01-08T10:57:01;8.50;99.90
4757;DHT22;2392;52.578;13.426;2023-01-08T10:59:28;8.50;99.90
4757;DHT22;2392;52.578;13.426;2023-01-08T11:01:57;8.50;99.90
4757;DHT22;2392;52.578;13.426;2023-01-08T11:04:29;8.50;99.90
4757;DHT22;2392;52.578;13.426;2023-01-08T11:06:59;8.50;99.90
4757;DHT22;2392;52.578;13.426;2023-01-08T11:09:29;8.50;99.90
4757;DHT22;2392;52.578;13.426;2023-01-08T11:11:58;8.50;99.90
4757;DHT22;2392;52.578;13.426;2023-01-08T11:14:28;8.50;99.90
4757;DHT22;2392;52.578;13.426;2023-01-08T11:16:57;8.50;99.90
4757;DHT22;2392;52.578;13.426;2023-01-08T11:19:27;8.50;99.90
4757;DHT22;2392;52.578;13.426;2023-01-08T11:21:57;8.50;99.90
4757;DHT22;2392;52.578;13.426;2023-01-08T11:24:27;8.60;99.90
4757;DHT22;2392;52.578;13.426;2023-01-08T11:27:01;8.60;99.90
4757;DHT22;2392;52.578;13.426;2023-01-08T11:29:35;8.70;99.90
4757;DHT22;2392;52.578;13.426;2023-01-08T11:32:29;8.80;99.90
4757;DHT22;2392;52.578;13.426;2023-01-08T11:35:11;8.90;99.90
4757;DHT22;2392;52.578;13.426;2023-01-08T11:37:41;8.90;99.90
4757;DHT22;2392;52.578;13.426;2023-01-08T11:40:13;8.90;99.90
4757;DHT22;2392;52.578;13.426;2023-01-08T11:43:01;9.00;99.90
4757;DHT22;2392;52.578;13.426;2023-01-08T11:45:36;9.00;99.90
4757;DHT22;2392;52.578;13.426;2023-01-08T11:48:14;9.00;99.90
4757;DHT22;2392;52.578;13.426;2023-01-08T11:50:53;9.00;99.90
4757;DHT22;2392;52.578;13.426;2023-01-08T11:53:30;9.00;99.90
4757;DHT22;2392;52.578;13.426;2023-01-08T11:56:12;9.00;99.90
4757;DHT22;2392;52.578;13.426;2023-01-08T11:58:52;9.00;99.90
4757;DHT22;2392;52.578;13.426;2023-01-08T12:01:33;9.00;99.90
4757;DHT22;2392;52.578;13.426;2023-01-08T12:04:19;9.10;99.90
4757;DHT22;2392;52.578;13.426;2023-01-08T12:06:56;9.10;99.90
4757;DHT22;2392;52.578;13.426;2023-01-08T12:09:34;9.10;99.90
4757;DHT22;2392;52.578;13.426;2023-01-08T12:12:11;9.10;99.90
4757;DHT22;2392;52.578;13.426;2023-01-08T12:14:49;9.10;99.90
4757;DHT22;2392;52.578;13.426;2023-01-08T12:20:29;9.10;99.90
4757;DHT22;2392;52.578;13.426;2023-01-08T12:23:09;9.10;99.90
4757;DHT22;2392;52.578;13.426;2023-01-08T12:25:47;9.10;99.90
4757;DHT22;2392;52.578;13.426;2023-01-08T12:28:47;9.20;99.90
4757;DHT22;2392;52.578;13.426;2023-01-08T12:31:42;9.20;99.90
4757;DHT22;2392;52.578;13.426;2023-01-08T12:34:18;9.30;99.90
4757;DHT22;2392;52.578;13.426;2023-01-08T12:36:52;9.30;99.90
4757;DHT22;2392;52.578;13.426;2023-01-08T12:39:27;9.40;99.90
4757;DHT22;2392;52.578;13.426;2023-01-08T12:42:03;9.40;99.90
4757;DHT22;2392;52.578;13.426;2023-01-08T12:44:35;9.40;99.90
4757;DHT22;2392;52.578;13.426;2023-01-08T12:47:12;9.40;99.90
4757;DHT22;2392;52.578;13.426;2023-01-08T12:49:46;9.30;99.90
4757;DHT22;2392;52.578;13.426;2023-01-08T12:52:17;9.30;99.90
4757;DHT22;2392;52.578;13.426;2023-01-08T12:54:54;9.20;99.90
4757;DHT22;2392;52.578;13.426;2023-01-08T12:57:27;9.20;99.90
4757;DHT22;2392;52.578;13.426;2023-01-08T13:00:00;9.10;99.90
4757;DHT22;2392;52.578;13.426;2023-01-08T13:02:35;9.10;99.90
4757;DHT22;2392;52.578;13.426;2023-01-08T13:05:13;9.10;99.90
4757;DHT22;2392;52.578;13.426;2023-01-08T13:07:56;9.10;99.90
4757;DHT22;2392;52.578;13.426;2023-01-08T13:10:33;9.10;99.90
4757;DHT22;2392;52.578;13.426;2023-01-08T13:13:21;9.10;99.90
4757;DHT22;2392;52.578;13.426;2023-01-08T13:15:50;9.10;99.90
4757;DHT22;2392;52.578;13.426;2023-01-08T13:18:20;9.10;99.90
4757;DHT22;2392;52.578;13.426;2023-01-08T13:20:54;9.10;99.90
4757;DHT22;2392;52.578;13.426;2023-01-08T13:23:24;9.10;99.90
4757;DHT22;2392;52.578;13.426;2023-01-08T13:25:55;9.00;99.90
4757;DHT22;2392;52.578;13.426;2023-01-08T13:28:27;9.10;99.90
4757;DHT22;2392;52.578;13.426;2023-01-08T13:31:08;9.00;99.90
4757;DHT22;2392;52.578;13.426;2023-01-08T13:33:37;9.00;99.90
4757;DHT22;2392;52.578;13.426;2023-01-08T13:36:21;9.00;99.90
4757;DHT22;2392;52.578;13.426;2023-01-08T13:39:04;9.00;99.90
4757;DHT22;2392;52.578;13.426;2023-01-08T13:41:34;9.10;99.90
4757;DHT22;2392;52.578;13.426;2023-01-08T13:44:04;9.00;99.90
4757;DHT22;2392;52.578;13.426;2023-01-08T13:46:35;9.00;99.90
4757;DHT22;2392;52.578;13.426;2023-01-08T13:49:03;9.00;99.90
4757;DHT22;2392;52.578;13.426;2023-01-08T13:51:41;9.00;99.90
4757;DHT22;2392;52.578;13.426;2023-01-08T13:54:28;9.00;99.90
4757;DHT22;2392;52.578;13.426;2023-01-08T13:57:06;9.00;99.90
4757;DHT22;2392;52.578;13.426;2023-01-08T13:59:39;9.00;99.90
4757;DHT22;2392;52.578;13.426;2023-01-08T14:02:26;8.90;99.90
4757;DHT22;2392;52.578;13.426;2023-01-08T14:04:54;8.90;99.90
4757;DHT22;2392;52.578;13.426;2023-01-08T14:07:21;8.90;99.90
4757;DHT22;2392;52.578;13.426;2023-01-08T14:09:49;8.80;99.90
4757;DHT22;2392;52.578;13.426;2023-01-08T14:12:23;8.90;99.90
4757;DHT22;2392;52.578;13.426;2023-01-08T14:14:52;8.80;99.90
4757;DHT22;2392;52.578;13.426;2023-01-08T14:17:22;8.80;99.90
4757;DHT22;2392;52.578;13.426;2023-01-08T14:19:51;8.80;99.90
4757;DHT22;2392;52.578;13.426;2023-01-08T14:22:20;8.80;99.90
4757;DHT22;2392;52.578;13.426;2023-01-08T14:24:53;8.80;99.90
4757;DHT22;2392;52.578;13.426;2023-01-08T14:27:24;8.80;99.90
4757;DHT22;2392;52.578;13.426;2023-01-08T14:29:54;8.80;99.90
4757;DHT22;2392;52.578;13.426;2023-01-08T14:32:23;8.70;99.90
4757;DHT22;2392;52.578;13.426;2023-01-08T14:34:52;8.70;99.90
4757;DHT22;2392;52.578;13.426;2023-01-08T14:37:19;8.70;99.90
4757;DHT22;2392;52.578;13.426;2023-01-08T14:40:00;8.70;99.90
4757;DHT22;2392;52.578;13.426;2023-01-08T14:42:31;8.70;99.90
4757;DHT22;2392;52.578;13.426;2023-01-08T14:45:23;8.60;99.90
4757;DHT22;2392;52.578;13.426;2023-01-08T14:47:53;8.60;99.90
4757;DHT22;2392;52.578;13.426;2023-01-08T14:50:23;8.60;99.90
4757;DHT22;2392;52.578;13.426;2023-01-08T14:52:53;8.60;99.90
4757;DHT22;2392;52.578;13.426;2023-01-08T14:55:21;8.60;99.90
4757;DHT22;2392;52.578;13.426;2023-01-08T14:57:51;8.60;99.90
4757;DHT22;2392;52.578;13.426;2023-01-08T15:00:22;8.60;99.90
4757;DHT22;2392;52.578;13.426;2023-01-08T15:02:51;8.60;99.90
4757;DHT22;2392;52.578;13.426;2023-01-08T15:05:19;8.60;99.90
4757;DHT22;2392;52.578;13.426;2023-01-08T15:08:20;8.60;99.90
4757;DHT22;2392;52.578;13.426;2023-01-08T15:10:56;8.60;99.90
4757;DHT22;2392;52.578;13.426;2023-01-08T15:13:30;8.60;99.90
4757;DHT22;2392;52.578;13.426;2023-01-08T15:16:05;8.60;99.90
4757;DHT22;2392;52.578;13.426;2023-01-08T15:18:38;8.60;99.90
4757;DHT22;2392;52.578;13.426;2023-01-08T15:21:07;8.60;99.90
4757;DHT22;2392;52.578;13.426;2023-01-08T15:23:39;8.60;99.90
4757;DHT22;2392;52.578;13.426;2023-01-08T15:26:11;8.60;99.90
4757;DHT22;2392;52.578;13.426;2023-01-08T15:28:48;8.50;99.90
4757;DHT22;2392;52.578;13.426;2023-01-08T15:31:27;8.50;99.90
4757;DHT22;2392;52.578;13.426;2023-01-08T15:33:58;8.50;99.90
4757;DHT22;2392;52.578;13.426;2023-01-08T15:36:26;8.50;99.90
4757;DHT22;2392;52.578;13.426;2023-01-08T15:38:53;8.50;99.90
4757;DHT22;2392;52.578;13.426;2023-01-08T15:41:22;8.50;99.90
4757;DHT22;2392;52.578;13.426;2023-01-08T15:44:09;8.40;99.90
4757;DHT22;2392;52.578;13.426;2023-01-08T15:46:38;8.40;99.90
4757;DHT22;2392;52.578;13.426;2023-01-08T15:49:04;8.40;99.90
4757;DHT22;2392;52.578;13.426;2023-01-08T15:51:33;8.40;99.90
4757;DHT22;2392;52.578;13.426;2023-01-08T15:54:01;8.40;99.90
4757;DHT22;2392;52.578;13.426;2023-01-08T15:56:28;8.40;99.90
4757;DHT22;2392;52.578;13.426;2023-01-08T15:58:55;8.40;99.90
4757;DHT22;2392;52.578;13.426;2023-01-08T16:01:24;8.40;99.90
4757;DHT22;2392;52.578;13.426;2023-01-08T16:03:53;8.40;99.90
4757;DHT22;2392;52.578;13.426;2023-01-08T16:06:20;8.40;99.90
4757;DHT22;2392;52.578;13.426;2023-01-08T16:08:47;8.40;99.90
4757;DHT22;2392;52.578;13.426;2023-01-08T16:11:26;8.40;99.90
4757;DHT22;2392;52.578;13.426;2023-01-08T16:13:53;8.40;99.90
4757;DHT22;2392;52.578;13.426;2023-01-08T16:16:20;8.40;99.90
4757;DHT22;2392;52.578;13.426;2023-01-08T16:18:49;8.40;99.90
4757;DHT22;2392;52.578;13.426;2023-01-08T16:21:17;8.40;99.90
4757;DHT22;2392;52.578;13.426;2023-01-08T16:23:44;8.40;99.90
4757;DHT22;2392;52.578;13.426;2023-01-08T16:26:12;8.40;99.90
4757;DHT22;2392;52.578;13.426;2023-01-08T16:28:39;8.50;99.90